Blossburg, PA

4:09 PM EST on January 30, 2015 (GMT -0500)
APRSWXNET Covington PA US | Change Station
CLOSE
Current Station
Personal Weather Station
Location: Blossburg, PA
Elevation: 1538 ft
Nearby Weather Stations

Elev 1538 ft 41.70 °N, 77.10 °W | Updated 36 minutes ago

Overcast
Overcast
18 °F
Feels Like 12 °F
N
4
Wind Variable Wind from North
Gusts 0.0 mph

Today
High -- | Low -- °F
--% Chance of Precip.
Yesterday
High -- | Low -- °F
Precip. -- in
7:22 AM 5:21 PM
Waxing Gibbous, 85% visible
Pressure 30.09 in
Visibility 9.0 miles
Clouds Overcast 4600 ft
Windchill 12 °F
Dew Point 8 °F
Humidity 65%
Rainfall -999.00 in
Snow Depth Not available.
UV 0 out of 12
Pollen .10 out of 12
Air Quality Not available.
Flu Activity Not available.
METAR KIPT 302054Z 31016G26KT 9SM OVC046 M03/M11 A3006 RMK AO2 PK WND 31026/2054 SLP187 60000 T10281111 53032

More Conditions Fewer Conditions

Pressure 30.09 in
Visibility 9.0 miles
Clouds Overcast 4600 ft
Windchill 12 °F
Dew Point 8 °F
Humidity 65%
Rainfall -999.00 in
Snow Depth Not available.
UV 0 out of 12
Pollen .10 out of 12
Air Quality Not available.
Flu Activity Not available.
METAR KIPT 302054Z 31016G26KT 9SM OVC046 M03/M11 A3006 RMK AO2 PK WND 31026/2054 SLP187 60000 T10281111 53032

More Conditions Fewer Conditions

10-Day Weather Forecast

Almanac

Astronomy

Jan. 30, 2015 Rise Set
Actual Time
Civil Twilight
Nautical Twilight
Astronomical Twilight
Moon
Length of Visible Light
Length of Day
Tomorrow will be .
, % of the Moon is Illuminated

Today's Extremes

State Highs State Lows

Community

WunderPhotos

Upload Photos

1,791,894 photos uploaded!

WunderBlogs® & News

Nearby

Air Quality

  Air Quality AQ Index Pollutant
Not available.

Snow Depth

Station Depth Elevation

Earthquake Activity

City Distance Mag. Time & Date
Minimum magnitude displayed is 2.5.

Coastal Water Temperatures

Place Temperature

Nearby Weather Stations